Time;durP1;ratioP1;P1;durP2;ratioP2;P2;SDS_P1;SDS_P2;PMS_P1;PMS_P2;Temp;Humidity;BMP_temperature;BMP_pressure;BME280_temperature;BME280_humidity;BME280_pressure;Samples;Min_cycle;Max_cycle;Signal;HPM_P1;HPM_P2
2023/05/26 00:01:03;;;;;;;7.38;2.35;;;15.40;80.10;;;;;;6198011;23;20071;-83
2023/05/26 00:03:29;;;;;;;10.30;3.10;;;15.40;80.10;;;;;;6198938;23;20005;-84
2023/05/26 00:05:55;;;;;;;7.35;2.90;;;15.40;80.60;;;;;;6197613;23;20019;-84
2023/05/26 00:08:23;;;;;;;10.35;3.58;;;15.40;80.10;;;;;;6196939;23;20000;-84
2023/05/26 00:10:49;;;;;;;9.30;2.97;;;15.40;79.90;;;;;;6197033;23;20001;-84
2023/05/26 00:13:15;;;;;;;8.15;2.70;;;15.30;80.00;;;;;;6197032;23;20001;-84
2023/05/26 00:15:41;;;;;;;9.80;2.85;;;15.30;80.10;;;;;;6195069;23;20456;-84
2023/05/26 00:18:06;;;;;;;8.85;2.83;;;15.30;80.10;;;;;;6195824;23;20073;-85
2023/05/26 00:20:32;;;;;;;8.65;2.90;;;15.30;80.20;;;;;;6196439;23;20023;-84
2023/05/26 00:22:58;;;;;;;8.60;2.78;;;15.30;80.20;;;;;;6195876;23;20016;-87
2023/05/26 00:25:24;;;;;;;7.85;2.90;;;15.30;80.20;;;;;;6196920;23;20093;-85
2023/05/26 00:27:50;;;;;;;8.50;2.70;;;15.30;80.30;;;;;;6197275;23;20008;-85
2023/05/26 00:30:15;;;;;;;8.23;2.85;;;15.20;80.20;;;;;;6197872;23;20039;-86
2023/05/26 00:32:41;;;;;;;9.40;2.88;;;15.30;80.20;;;;;;6197981;23;20011;-85
2023/05/26 00:35:07;;;;;;;8.15;3.05;;;15.30;80.30;;;;;;6196942;23;20228;-85
2023/05/26 00:37:32;;;;;;;8.27;2.88;;;15.20;80.20;;;;;;6197795;23;20008;-87
2023/05/26 00:39:58;;;;;;;9.52;3.30;;;15.30;80.30;;;;;;6198125;23;20035;-84
2023/05/26 00:42:24;;;;;;;8.27;2.78;;;15.20;80.20;;;;;;6222935;23;20005;-86
2023/05/26 00:44:51;;;;;;;7.40;2.63;;;15.20;80.20;;;;;;6197222;23;20347;-86
2023/05/26 00:47:16;;;;;;;6.75;2.60;;;15.20;80.10;;;;;;6195260;23;20005;-86
2023/05/26 00:49:42;;;;;;;8.75;2.75;;;15.20;80.20;;;;;;6199000;23;20004;-83
2023/05/26 00:52:08;;;;;;;9.27;2.80;;;15.30;80.20;;;;;;6197850;23;20009;-84
2023/05/26 00:54:34;;;;;;;6.43;2.63;;;15.20;80.10;;;;;;6197998;23;20086;-86
2023/05/26 00:57:00;;;;;;;7.75;2.60;;;15.20;80.10;;;;;;6195716;23;20027;-84
2023/05/26 00:59:26;;;;;;;7.18;2.90;;;15.20;80.10;;;;;;6195403;23;20009;-86
2023/05/26 01:01:52;;;;;;;7.53;2.80;;;15.20;80.10;;;;;;6196165;23;20498;-84
2023/05/26 01:04:18;;;;;;;8.95;3.40;;;15.20;80.00;;;;;;6198456;23;20012;-85
2023/05/26 01:06:44;;;;;;;9.18;3.17;;;15.30;80.00;;;;;;6196044;23;20005;-84
2023/05/26 01:09:11;;;;;;;7.70;2.72;;;15.30;80.10;;;;;;6195180;23;20005;-84
2023/05/26 01:11:44;;;;;;;7.78;2.50;;;15.20;80.00;;;;;;6195129;23;20469;-84
2023/05/26 01:14:15;;;;;;;9.98;2.92;;;15.20;80.00;;;;;;6221729;23;19997;-85
2023/05/26 01:16:51;;;;;;;8.43;2.67;;;15.20;80.00;;;;;;6224029;23;20011;-85
2023/05/26 01:19:47;;;;;;;8.35;2.80;;;15.20;80.00;;;;;;6197203;23;20283;-84
2023/05/26 01:22:38;;;;;;;7.72;2.72;;;15.20;80.00;;;;;;6195994;23;20039;-85
2023/05/26 01:25:17;;;;;;;10.02;2.83;;;15.20;80.00;;;;;;6219968;23;20020;-84
2023/05/26 01:28:06;;;;;;;10.52;3.20;;;15.20;80.00;;;;;;6194717;23;20000;-84
2023/05/26 01:30:34;;;;;;;8.15;2.83;;;15.20;80.10;;;;;;6199701;23;20529;-83
2023/05/26 01:32:59;;;;;;;8.27;2.65;;;15.20;80.10;;;;;;6195263;23;20008;-83
2023/05/26 01:35:25;;;;;;;7.82;2.60;;;15.30;80.20;;;;;;6195578;23;20395;-84
2023/05/26 01:37:52;;;;;;;8.85;2.95;;;15.30;80.20;;;;;;6195915;23;20008;-83
2023/05/26 01:40:18;;;;;;;8.32;2.65;;;15.30;80.20;;;;;;6195235;23;20013;-82
2023/05/26 01:42:54;;;;;;;7.93;2.72;;;15.30;80.20;;;;;;6194775;23;20012;-84
2023/05/26 01:45:24;;;;;;;9.35;3.03;;;15.40;80.20;;;;;;6194729;23;20034;-83
2023/05/26 01:47:55;;;;;;;8.90;2.97;;;15.30;80.10;;;;;;6193609;23;20011;-83
2023/05/26 01:50:26;;;;;;;9.27;2.85;;;15.40;80.10;;;;;;6193903;23;20005;-85
2023/05/26 01:52:55;;;;;;;8.65;3.22;;;15.30;80.10;;;;;;6193593;23;20055;-87
2023/05/26 01:55:23;;;;;;;7.60;2.60;;;15.40;80.10;;;;;;6195743;23;20015;-85
2023/05/26 01:57:49;;;;;;;9.30;3.40;;;15.30;80.00;;;;;;6195436;23;20009;-84
2023/05/26 02:00:22;;;;;;;9.50;2.60;;;15.20;79.90;;;;;;6195878;23;20009;-83
2023/05/26 02:02:48;;;;;;;7.13;2.50;;;15.30;80.00;;;;;;6195981;23;20079;-83
2023/05/26 02:05:13;;;;;;;7.60;2.47;;;15.30;79.90;;;;;;6193160;23;20000;-86
2023/05/26 02:07:40;;;;;;;7.97;2.85;;;15.20;80.00;;;;;;6192631;23;20079;-85
2023/05/26 02:10:07;;;;;;;7.63;2.80;;;15.20;80.00;;;;;;6192678;23;20001;-86
2023/05/26 02:12:32;;;;;;;8.30;2.60;;;15.20;80.10;;;;;;6192672;23;20047;-85
2023/05/26 02:14:57;;;;;;;8.77;3.15;;;15.20;80.10;;;;;;6193921;23;20004;-83
2023/05/26 02:17:23;;;;;;;9.73;2.90;;;15.30;80.20;;;;;;6192862;23;20008;-83
2023/05/26 02:19:49;;;;;;;8.95;3.05;;;15.20;80.20;;;;;;6192709;23;20020;-84
2023/05/26 02:22:14;;;;;;;8.50;2.85;;;15.20;80.30;;;;;;6193010;23;20032;-84
2023/05/26 02:24:40;;;;;;;8.63;2.70;;;15.20;80.20;;;;;;6192896;23;20008;-84
2023/05/26 02:27:06;;;;;;;8.00;2.42;;;15.20;80.20;;;;;;6191832;23;20227;-82
2023/05/26 02:29:32;;;;;;;8.88;2.53;;;15.20;80.30;;;;;;6193050;23;20513;-84
2023/05/26 02:31:57;;;;;;;8.25;2.72;;;15.20;80.30;;;;;;6195622;23;20012;-85
2023/05/26 02:34:23;;;;;;;8.55;2.70;;;15.20;80.20;;;;;;6196005;23;20000;-86
2023/05/26 02:36:49;;;;;;;8.77;2.97;;;15.20;80.20;;;;;;6194052;23;20016;-86
2023/05/26 02:39:16;;;;;;;7.22;2.45;;;15.10;80.20;;;;;;6195474;23;20035;-83
2023/05/26 02:41:41;;;;;;;6.47;2.50;;;15.20;80.20;;;;;;6195063;23;20072;-84
2023/05/26 02:44:07;;;;;;;8.27;2.53;;;15.20;80.20;;;;;;6193990;23;20031;-85
2023/05/26 02:46:32;;;;;;;8.77;3.05;;;15.20;80.20;;;;;;6190382;23;20085;-82
2023/05/26 02:49:00;;;;;;;8.25;2.67;;;15.10;80.10;;;;;;6191538;23;20088;-83
2023/05/26 02:51:26;;;;;;;6.72;2.38;;;15.20;80.10;;;;;;6187627;23;20005;-85
2023/05/26 02:53:52;;;;;;;9.48;2.90;;;15.20;80.10;;;;;;6191085;23;20028;-84
2023/05/26 02:56:17;;;;;;;8.18;2.88;;;15.20;80.10;;;;;;6190841;23;20008;-83
2023/05/26 02:58:43;;;;;;;7.93;2.75;;;15.20;80.10;;;;;;6190111;23;20036;-85
2023/05/26 03:01:08;;;;;;;7.57;2.50;;;15.20;80.10;;;;;;6215485;23;20013;-87
2023/05/26 03:03:35;;;;;;;8.30;2.92;;;15.20;80.00;;;;;;6191408;23;20009;-84
2023/05/26 03:06:02;;;;;;;10.75;2.70;;;15.10;79.90;;;;;;6192530;23;20009;-85
2023/05/26 03:08:28;;;;;;;9.55;3.05;;;15.20;80.00;;;;;;6190709;23;20008;-85
2023/05/26 03:10:53;;;;;;;8.65;2.70;;;15.10;80.00;;;;;;6191908;23;20031;-85
2023/05/26 03:13:18;;;;;;;7.55;2.70;;;15.20;80.00;;;;;;6189231;23;20005;-86
2023/05/26 03:15:44;;;;;;;7.80;2.85;;;15.20;80.00;;;;;;6190860;23;20004;-87
2023/05/26 03:18:10;;;;;;;8.60;2.60;;;15.10;79.90;;;;;;6185680;23;20435;-82
2023/05/26 03:20:36;;;;;;;7.47;2.67;;;15.20;80.00;;;;;;6184701;23;20354;-84
2023/05/26 03:23:01;;;;;;;7.75;2.63;;;15.20;80.10;;;;;;6184115;23;20009;-82
2023/05/26 03:25:27;;;;;;;7.93;2.42;;;15.20;80.00;;;;;;6185718;23;20481;-84
2023/05/26 03:27:52;;;;;;;7.57;2.55;;;15.20;80.00;;;;;;6184997;23;20499;-82
2023/05/26 03:30:18;;;;;;;8.45;3.03;;;15.20;80.50;;;;;;6186596;23;20031;-84
2023/05/26 03:32:43;;;;;;;9.20;2.92;;;15.20;80.00;;;;;;6188173;23;20001;-84
2023/05/26 03:35:09;;;;;;;7.93;2.45;;;15.20;79.90;;;;;;6186740;23;20011;-84
2023/05/26 03:37:35;;;;;;;8.10;2.50;;;15.40;80.00;;;;;;6211972;23;20292;-84
2023/05/26 03:40:00;;;;;;;7.97;2.65;;;15.30;79.90;;;;;;6189724;23;20015;-86
2023/05/26 03:42:26;;;;;;;7.90;3.03;;;15.30;79.90;;;;;;6192866;23;20011;-84
2023/05/26 03:44:51;;;;;;;7.10;2.50;;;15.40;79.90;;;;;;6222930;23;20240;-83
2023/05/26 03:47:17;;;;;;;8.38;2.95;;;15.30;79.80;;;;;;6220641;23;20011;-85
2023/05/26 03:49:42;;;;;;;9.50;3.17;;;15.30;79.80;;;;;;6192616;23;20004;-84
2023/05/26 03:52:08;;;;;;;9.38;2.80;;;15.30;79.80;;;;;;6196055;23;20011;-84
2023/05/26 03:54:33;;;;;;;9.98;2.75;;;15.30;79.70;;;;;;6223284;23;20064;-84
2023/05/26 03:56:59;;;;;;;8.13;2.35;;;15.30;79.70;;;;;;6194828;23;20004;-83
2023/05/26 03:59:25;;;;;;;8.20;2.65;;;15.40;79.80;;;;;;6195152;23;20012;-84
2023/05/26 04:01:50;;;;;;;7.43;2.70;;;15.20;79.70;;;;;;6195614;23;20084;-84
2023/05/26 04:04:16;;;;;;;8.40;2.78;;;15.20;79.80;;;;;;6195240;23;19997;-86
2023/05/26 04:06:41;;;;;;;8.15;2.72;;;15.20;79.80;;;;;;6190900;23;20059;-83
2023/05/26 04:09:07;;;;;;;8.10;2.53;;;15.20;79.90;;;;;;6193114;23;20024;-85
2023/05/26 04:11:32;;;;;;;7.28;2.55;;;15.20;79.90;;;;;;6197585;23;20001;-85
2023/05/26 04:13:58;;;;;;;7.63;2.67;;;15.20;79.90;;;;;;6186859;23;20008;-87
2023/05/26 04:16:24;;;;;;;8.57;2.97;;;15.20;80.00;;;;;;6189213;23;20091;-86
2023/05/26 04:18:49;;;;;;;8.25;2.58;;;15.10;80.00;;;;;;6190023;23;20096;-86
2023/05/26 04:21:15;;;;;;;7.07;2.45;;;15.30;80.10;;;;;;6190635;23;20019;-86
2023/05/26 04:23:41;;;;;;;7.95;2.80;;;15.20;80.00;;;;;;6192061;23;20150;-85
2023/05/26 04:26:06;;;;;;;7.40;2.38;;;15.50;80.20;;;;;;6189957;23;20377;-84
2023/05/26 04:28:33;;;;;;;7.72;2.60;;;15.20;80.00;;;;;;6188553;23;20001;-85
2023/05/26 04:31:00;;;;;;;8.35;2.63;;;15.20;80.00;;;;;;6189891;23;20011;-85
2023/05/26 04:33:26;;;;;;;7.40;2.60;;;15.10;80.00;;;;;;6191159;23;20244;-86
2023/05/26 04:35:52;;;;;;;7.05;2.13;;;15.20;80.00;;;;;;6192165;23;20064;-87
2023/05/26 04:38:17;;;;;;;8.18;2.78;;;15.80;80.30;;;;;;6195090;23;20009;-87
2023/05/26 04:40:43;;;;;;;8.63;2.80;;;15.20;79.80;;;;;;6195275;23;20052;-86
2023/05/26 04:43:21;;;;;;;10.52;2.75;;;15.50;80.00;;;;;;6222922;23;20061;-85
2023/05/26 04:45:47;;;;;;;8.60;2.85;;;15.10;79.80;;;;;;6197458;23;20300;-86
2023/05/26 04:48:13;;;;;;;7.72;2.58;;;15.80;80.10;;;;;;6200579;23;20026;-86
2023/05/26 04:50:39;;;;;;;10.13;2.95;;;15.20;79.80;;;;;;6192635;23;20009;-81
2023/05/26 04:53:06;;;;;;;7.45;2.63;;;15.10;79.70;;;;;;6214240;23;20043;-82
2023/05/26 04:55:35;;;;;;;7.63;2.55;;;15.20;79.90;;;;;;6186500;23;20016;-80
2023/05/26 04:58:01;;;;;;;8.55;2.70;;;15.20;79.70;;;;;;6189653;23;20176;-80
2023/05/26 05:00:31;;;;;;;7.53;2.38;;;15.10;79.70;;;;;;6218045;23;20005;-81
2023/05/26 05:02:57;;;;;;;7.97;2.60;;;15.10;79.60;;;;;;6198518;23;20505;-85
2023/05/26 05:05:22;;;;;;;8.88;2.80;;;15.20;79.60;;;;;;6195464;23;20012;-83
2023/05/26 05:07:50;;;;;;;9.40;2.95;;;15.20;79.60;;;;;;6189730;23;20000;-84
2023/05/26 05:10:16;;;;;;;7.22;2.58;;;15.20;79.60;;;;;;6191619;23;20004;-79
2023/05/26 05:12:41;;;;;;;8.02;2.40;;;15.20;79.50;;;;;;6211660;23;20060;-81
2023/05/26 05:15:07;;;;;;;8.27;2.80;;;15.20;79.50;;;;;;6192328;23;20016;-81
2023/05/26 05:17:33;;;;;;;8.38;2.75;;;15.20;79.40;;;;;;6196065;23;20018;-80
2023/05/26 05:19:58;;;;;;;8.35;2.95;;;15.20;79.40;;;;;;6195726;23;20020;-81
2023/05/26 05:22:25;;;;;;;8.70;2.92;;;15.20;79.40;;;;;;6194120;23;20005;-81
2023/05/26 05:24:50;;;;;;;8.20;2.88;;;15.10;79.30;;;;;;6221045;23;20004;-85
2023/05/26 05:27:16;;;;;;;9.65;3.22;;;15.20;79.30;;;;;;6196370;23;20035;-82
2023/05/26 05:29:41;;;;;;;9.75;2.70;;;15.30;79.20;;;;;;6203594;23;20080;-84
2023/05/26 05:32:07;;;;;;;11.40;3.17;;;15.30;79.20;;;;;;6202366;23;20023;-84
2023/05/26 05:34:32;;;;;;;10.27;2.63;;;15.20;78.70;;;;;;6204814;23;20375;-84
2023/05/26 05:36:57;;;;;;;14.07;3.67;;;15.20;78.70;;;;;;6204651;23;19997;-85
2023/05/26 05:39:23;;;;;;;13.45;4.18;;;15.20;78.20;;;;;;6203786;23;20505;-84
2023/05/26 05:41:48;;;;;;;14.63;3.63;;;15.20;78.20;;;;;;6204893;23;20007;-84
2023/05/26 05:44:14;;;;;;;16.77;4.10;;;15.30;77.70;;;;;;6205107;23;20052;-84
2023/05/26 05:46:39;;;;;;;15.20;4.10;;;15.30;77.80;;;;;;6204627;23;20019;-84
2023/05/26 05:49:05;;;;;;;17.35;4.00;;;15.30;77.60;;;;;;6205121;23;20000;-84
2023/05/26 05:51:31;;;;;;;14.02;3.15;;;15.30;77.70;;;;;;6205574;23;20035;-85
2023/05/26 05:53:57;;;;;;;17.95;4.28;;;15.30;77.70;;;;;;6206069;23;20001;-85
2023/05/26 05:56:22;;;;;;;13.65;3.25;;;15.30;77.80;;;;;;6204466;23;20609;-83
2023/05/26 05:58:48;;;;;;;12.45;3.78;;;15.30;77.80;;;;;;6205044;23;20001;-84
2023/05/26 06:01:13;;;;;;;14.98;3.70;;;15.30;77.90;;;;;;6203588;23;20000;-84
2023/05/26 06:03:39;;;;;;;12.90;3.78;;;15.30;77.90;;;;;;6204431;23;20007;-84
2023/05/26 06:06:05;;;;;;;15.40;3.50;;;15.30;77.90;;;;;;6204458;23;20005;-84
2023/05/26 06:08:31;;;;;;;12.98;3.33;;;15.30;78.00;;;;;;6203489;23;20001;-84
2023/05/26 06:10:56;;;;;;;17.85;3.78;;;15.30;78.00;;;;;;6229113;23;20001;-84
2023/05/26 06:13:22;;;;;;;11.65;3.28;;;15.30;78.00;;;;;;6204921;23;20000;-84
2023/05/26 06:15:47;;;;;;;12.85;3.67;;;15.30;78.00;;;;;;6203718;23;20000;-84
2023/05/26 06:18:13;;;;;;;12.25;3.65;;;15.30;78.00;;;;;;6204332;23;20009;-84
2023/05/26 06:20:38;;;;;;;14.65;3.85;;;15.30;78.00;;;;;;6204557;23;20031;-84
2023/05/26 06:23:04;;;;;;;9.82;3.40;;;15.30;78.00;;;;;;6205408;23;20059;-84
2023/05/26 06:25:29;;;;;;;8.68;2.88;;;15.50;78.00;;;;;;6205958;23;20028;-84
2023/05/26 06:27:54;;;;;;;12.70;3.58;;;15.30;77.90;;;;;;6205084;23;20081;-84
2023/05/26 06:30:20;;;;;;;12.07;3.63;;;15.30;77.90;;;;;;6205620;23;20005;-84
2023/05/26 06:32:45;;;;;;;10.65;3.25;;;15.30;77.90;;;;;;6205854;23;20020;-83
2023/05/26 06:35:12;;;;;;;9.40;3.05;;;15.40;77.90;;;;;;6205437;23;20005;-84
2023/05/26 06:37:38;;;;;;;9.80;3.35;;;15.40;77.80;;;;;;6205045;23;20434;-84
2023/05/26 06:40:04;;;;;;;9.30;2.85;;;15.40;77.90;;;;;;6205897;23;20013;-84
2023/05/26 06:42:29;;;;;;;13.02;3.25;;;15.40;77.80;;;;;;6204642;23;20015;-84
2023/05/26 06:44:55;;;;;;;10.90;3.08;;;15.40;77.80;;;;;;6205025;23;20293;-84
2023/05/26 06:47:23;;;;;;;10.88;3.03;;;15.40;77.90;;;;;;6205901;23;20040;-84
2023/05/26 06:49:49;;;;;;;11.15;3.92;;;15.40;77.90;;;;;;6206172;23;20040;-84
2023/05/26 06:52:16;;;;;;;11.55;3.55;;;15.40;77.90;;;;;;6206732;23;20008;-84
2023/05/26 06:54:41;;;;;;;13.93;3.63;;;15.40;77.90;;;;;;6208289;23;20055;-84
2023/05/26 06:57:06;;;;;;;11.85;3.20;;;15.40;77.90;;;;;;6206848;23;20000;-83
2023/05/26 06:59:32;;;;;;;9.77;3.00;;;15.40;78.00;;;;;;6209671;23;20001;-84
2023/05/26 07:01:57;;;;;;;10.52;3.30;;;15.40;77.90;;;;;;6209067;23;19996;-84
2023/05/26 07:04:24;;;;;;;13.00;3.13;;;15.50;77.90;;;;;;6209623;23;20068;-84
2023/05/26 07:06:49;;;;;;;11.95;3.55;;;15.40;77.90;;;;;;6208669;23;20056;-84
2023/05/26 07:09:15;;;;;;;10.70;3.05;;;15.40;77.90;;;;;;6208538;23;20012;-84
2023/05/26 07:11:40;;;;;;;9.20;2.80;;;15.40;77.90;;;;;;6209224;23;19984;-84
2023/05/26 07:14:06;;;;;;;9.43;2.88;;;15.50;78.00;;;;;;6208076;23;20016;-84
2023/05/26 07:16:31;;;;;;;9.57;2.95;;;15.50;77.90;;;;;;6207421;23;20005;-84
2023/05/26 07:18:57;;;;;;;9.52;2.92;;;17.20;78.60;;;;;;6208730;23;20019;-84
2023/05/26 07:21:25;;;;;;;11.20;2.97;;;15.60;77.50;;;;;;6208746;23;20032;-83
2023/05/26 07:23:51;;;;;;;9.60;3.05;;;15.70;77.40;;;;;;6209230;23;20048;-84
2023/05/26 07:26:16;;;;;;;12.00;3.47;;;15.70;77.30;;;;;;6207484;23;20009;-83
2023/05/26 07:28:42;;;;;;;8.60;2.75;;;15.70;77.30;;;;;;6207750;23;20011;-84
2023/05/26 07:31:08;;;;;;;8.35;3.15;;;15.70;77.20;;;;;;6208284;23;19996;-84
2023/05/26 07:33:33;;;;;;;11.00;3.40;;;15.80;77.10;;;;;;6208118;23;20020;-84
2023/05/26 07:35:59;;;;;;;9.13;2.67;;;15.80;76.90;;;;;;6208349;23;20008;-84
2023/05/26 07:38:25;;;;;;;9.30;2.65;;;15.90;76.90;;;;;;6207786;23;20004;-84
2023/05/26 07:40:51;;;;;;;9.48;2.97;;;15.80;76.90;;;;;;6208590;23;20005;-84
2023/05/26 07:43:16;;;;;;;8.65;2.70;;;15.80;76.90;;;;;;6208100;23;20005;-84
2023/05/26 07:45:42;;;;;;;9.45;2.80;;;15.80;76.90;;;;;;6207802;23;20084;-83
2023/05/26 07:48:08;;;;;;;10.75;3.05;;;15.80;76.70;;;;;;6206873;23;20005;-83
2023/05/26 07:50:33;;;;;;;9.88;3.22;;;15.90;76.80;;;;;;6207890;23;20047;-84
2023/05/26 07:52:59;;;;;;;9.05;3.20;;;15.80;76.70;;;;;;6207655;23;20466;-84
2023/05/26 07:55:24;;;;;;;10.98;3.15;;;15.80;76.80;;;;;;6207540;23;20024;-84
2023/05/26 07:57:50;;;;;;;10.27;3.17;;;15.80;76.80;;;;;;6207171;23;20001;-84
2023/05/26 08:00:15;;;;;;;8.73;2.60;;;15.90;76.90;;;;;;6206091;23;20087;-84
2023/05/26 08:02:42;;;;;;;9.32;2.80;;;15.80;76.80;;;;;;6206641;23;20092;-84
2023/05/26 08:05:08;;;;;;;9.70;2.90;;;15.80;76.90;;;;;;6205799;23;20004;-84
2023/05/26 08:07:34;;;;;;;9.07;2.88;;;15.90;77.10;;;;;;6206420;23;20043;-84
2023/05/26 08:09:59;;;;;;;9.82;3.35;;;15.90;77.00;;;;;;6205626;23;20008;-83
2023/05/26 08:12:25;;;;;;;9.95;3.10;;;15.90;77.10;;;;;;6206430;23;20032;-84
2023/05/26 08:14:50;;;;;;;9.18;2.80;;;15.90;77.00;;;;;;6207445;23;20008;-83
2023/05/26 08:17:16;;;;;;;9.50;2.83;;;15.90;77.00;;;;;;6205897;23;20024;-84
2023/05/26 08:19:42;;;;;;;9.27;2.90;;;15.90;77.00;;;;;;6206625;23;20008;-83
2023/05/26 08:22:07;;;;;;;7.95;2.72;;;15.90;76.90;;;;;;6206720;23;20005;-84
2023/05/26 08:24:33;;;;;;;10.63;2.97;;;16.00;77.00;;;;;;6206383;23;20000;-83
2023/05/26 08:26:58;;;;;;;10.00;2.80;;;16.00;76.90;;;;;;6207338;23;20005;-83
2023/05/26 08:29:24;;;;;;;8.32;3.03;;;16.00;76.90;;;;;;6206942;23;20005;-84
2023/05/26 08:31:50;;;;;;;7.00;2.30;;;16.00;76.90;;;;;;6206763;23;20056;-83
2023/05/26 08:34:16;;;;;;;7.57;2.85;;;16.00;76.80;;;;;;6206147;23;20001;-83
2023/05/26 08:36:42;;;;;;;7.75;2.90;;;16.00;76.80;;;;;;6206159;23;20011;-84
2023/05/26 08:39:07;;;;;;;9.57;3.10;;;16.00;76.80;;;;;;6207276;23;20004;-84
2023/05/26 08:41:53;;;;;;;8.27;2.50;;;16.10;76.80;;;;;;6206796;23;20058;-83
2023/05/26 08:44:19;;;;;;;7.65;2.90;;;16.10;76.80;;;;;;6231920;23;20008;-83
2023/05/26 08:46:45;;;;;;;8.13;2.50;;;16.10;76.80;;;;;;6206033;23;20320;-83
2023/05/26 08:49:17;;;;;;;7.45;2.60;;;16.10;76.70;;;;;;6206224;23;20032;-83
2023/05/26 08:51:46;;;;;;;8.88;3.08;;;16.10;76.80;;;;;;6206787;23;20080;-84
2023/05/26 08:54:11;;;;;;;9.13;2.90;;;16.10;76.70;;;;;;6207677;23;20001;-84
2023/05/26 08:56:37;;;;;;;6.43;2.45;;;16.10;76.60;;;;;;6232989;23;20061;-83
2023/05/26 08:59:04;;;;;;;9.77;2.67;;;16.20;76.70;;;;;;6206481;23;20011;-84
2023/05/26 09:01:29;;;;;;;8.57;2.95;;;16.20;76.70;;;;;;6206905;23;20076;-84
2023/05/26 09:03:55;;;;;;;9.60;2.85;;;16.20;76.60;;;;;;6206850;23;20009;-84
2023/05/26 09:06:21;;;;;;;6.85;2.58;;;16.30;76.60;;;;;;6206113;23;20008;-83
2023/05/26 09:08:46;;;;;;;8.57;3.40;;;16.30;76.50;;;;;;6206043;23;20020;-84
2023/05/26 09:11:27;;;;;;;5.82;2.10;;;16.30;76.40;;;;;;6205543;23;20064;-83
2023/05/26 09:13:54;;;;;;;8.20;2.65;;;16.30;76.30;;;;;;6206102;23;20007;-84
2023/05/26 09:16:22;;;;;;;8.02;2.90;;;16.30;76.20;;;;;;6205528;23;20075;-84
2023/05/26 09:18:47;;;;;;;8.38;2.80;;;16.30;76.20;;;;;;6205927;23;20064;-84
2023/05/26 09:21:13;;;;;;;8.65;2.55;;;16.30;76.10;;;;;;6206834;23;20099;-84
2023/05/26 09:23:38;;;;;;;6.60;2.20;;;16.40;76.10;;;;;;6206260;23;20048;-84
2023/05/26 09:26:06;;;;;;;7.20;2.60;;;16.40;76.00;;;;;;6205568;23;20072;-83
2023/05/26 09:28:31;;;;;;;7.93;2.50;;;16.40;76.00;;;;;;6205640;23;20005;-83
2023/05/26 09:30:57;;;;;;;7.25;2.88;;;16.40;75.90;;;;;;6206358;23;20008;-84
2023/05/26 09:33:22;;;;;;;7.05;2.58;;;16.40;75.70;;;;;;6206091;23;20004;-84
2023/05/26 09:35:49;;;;;;;8.65;2.70;;;16.40;75.70;;;;;;6205509;23;20004;-84
2023/05/26 09:38:17;;;;;;;8.40;2.65;;;16.40;75.90;;;;;;6206342;23;20035;-84
2023/05/26 09:40:52;;;;;;;8.10;2.80;;;16.40;76.10;;;;;;6205616;23;20008;-84
2023/05/26 09:43:19;;;;;;;7.95;2.42;;;16.50;76.30;;;;;;6205630;23;20036;-83
2023/05/26 09:45:45;;;;;;;7.53;2.35;;;16.40;76.40;;;;;;6206001;23;20096;-83
2023/05/26 09:48:10;;;;;;;8.07;2.60;;;16.40;76.40;;;;;;6205237;23;20005;-83
2023/05/26 09:50:38;;;;;;;6.28;2.25;;;16.30;76.40;;;;;;6206090;23;20001;-83
2023/05/26 09:53:05;;;;;;;8.68;2.53;;;16.40;76.50;;;;;;6205749;23;20001;-83
2023/05/26 09:55:32;;;;;;;8.00;2.80;;;16.40;76.50;;;;;;6205911;23;20009;-83
2023/05/26 09:58:09;;;;;;;7.40;2.50;;;16.50;76.50;;;;;;6205304;23;20031;-83
2023/05/26 10:00:36;;;;;;;8.13;2.38;;;16.40;76.50;;;;;;6205469;23;20052;-84
2023/05/26 10:03:07;;;;;;;7.60;2.40;;;16.40;76.40;;;;;;6205412;23;20008;-83
2023/05/26 10:05:34;;;;;;;6.70;2.30;;;16.40;76.40;;;;;;6206381;23;20001;-83
2023/05/26 10:08:00;;;;;;;8.90;2.60;;;16.40;76.40;;;;;;6204583;23;20009;-83
2023/05/26 10:10:28;;;;;;;7.43;2.70;;;16.40;76.40;;;;;;6205890;23;20005;-83
2023/05/26 10:12:54;;;;;;;6.50;2.03;;;16.40;76.40;;;;;;6232651;23;20032;-84
2023/05/26 10:15:20;;;;;;;5.95;2.10;;;16.50;76.40;;;;;;6232027;23;20024;-84
2023/05/26 10:17:46;;;;;;;7.43;2.70;;;16.40;76.30;;;;;;6205390;23;20005;-83
2023/05/26 10:20:12;;;;;;;8.75;2.60;;;16.40;76.30;;;;;;6205618;23;20077;-83
2023/05/26 10:22:58;;;;;;;9.73;2.95;;;16.40;76.30;;;;;;6206449;23;20005;-83
2023/05/26 10:25:34;;;;;;;6.00;2.30;;;16.40;76.30;;;;;;6206360;23;20095;-83
2023/05/26 10:28:17;;;;;;;7.45;2.63;;;16.50;76.30;;;;;;6205410;23;20068;-83
2023/05/26 10:30:43;;;;;;;6.32;2.38;;;16.50;76.30;;;;;;6205695;23;20051;-83
2023/05/26 10:33:12;;;;;;;7.05;2.45;;;16.40;76.20;;;;;;6206288;23;20003;-84
2023/05/26 10:35:38;;;;;;;8.02;2.40;;;16.40;76.20;;;;;;6206301;23;20285;-84
2023/05/26 10:38:05;;;;;;;6.97;2.28;;;17.30;76.70;;;;;;6205403;23;20143;-84
2023/05/26 10:40:33;;;;;;;7.20;2.58;;;16.50;76.30;;;;;;6205259;23;20009;-84
2023/05/26 10:43:00;;;;;;;8.02;2.60;;;16.50;76.20;;;;;;6232327;23;20023;-84
2023/05/26 10:45:33;;;;;;;7.20;2.50;;;16.40;76.70;;;;;;6206168;23;20068;-84
2023/05/26 10:48:06;;;;;;;7.13;2.65;;;16.40;76.20;;;;;;6206169;23;20001;-83
2023/05/26 10:50:59;;;;;;;7.35;2.65;;;16.40;76.30;;;;;;6232968;23;20027;-83
2023/05/26 10:53:30;;;;;;;7.18;2.65;;;16.50;76.20;;;;;;6232622;23;20040;-83
2023/05/26 10:56:02;;;;;;;8.02;2.70;;;16.60;76.20;;;;;;6206365;23;20087;-83
2023/05/26 10:58:48;;;;;;;7.53;2.35;;;16.60;76.10;;;;;;6205664;23;20004;-84
2023/05/26 11:01:27;;;;;;;7.00;2.42;;;16.50;76.00;;;;;;6206537;23;20004;-83
2023/05/26 11:04:08;;;;;;;7.95;2.60;;;16.60;75.90;;;;;;6206865;23;20058;-83
2023/05/26 11:06:47;;;;;;;8.30;2.60;;;16.60;75.90;;;;;;6205965;23;20005;-83
2023/05/26 11:09:13;;;;;;;7.40;2.58;;;16.60;75.90;;;;;;6204598;23;19997;-83
2023/05/26 11:11:59;;;;;;;7.47;2.95;;;16.60;75.80;;;;;;6204758;23;20009;-83
2023/05/26 11:14:29;;;;;;;7.65;2.35;;;16.60;75.80;;;;;;6205935;23;20001;-83
2023/05/26 11:17:00;;;;;;;7.53;2.88;;;16.60;75.80;;;;;;6204918;23;20054;-83
2023/05/26 11:19:32;;;;;;;8.43;2.55;;;16.60;75.60;;;;;;6232572;23;20479;-83
2023/05/26 11:22:00;;;;;;;7.82;2.47;;;16.60;75.70;;;;;;6205554;23;20005;-83
2023/05/26 11:24:26;;;;;;;7.28;2.45;;;16.50;75.70;;;;;;6206582;23;20004;-83
2023/05/26 11:26:51;;;;;;;7.80;2.13;;;16.60;76.00;;;;;;6206594;23;20004;-84
2023/05/26 11:29:20;;;;;;;7.55;2.70;;;16.50;76.00;;;;;;6212390;22;20332;-82
2023/05/26 11:31:47;;;;;;;7.55;2.63;;;16.40;76.20;;;;;;6217696;23;20070;-82
2023/05/26 11:34:12;;;;;;;7.13;2.65;;;16.40;76.40;;;;;;6244380;23;20391;-81
2023/05/26 11:36:39;;;;;;;7.05;2.30;;;16.40;76.50;;;;;;6217093;23;20000;-82
2023/05/26 11:39:05;;;;;;;8.68;2.92;;;16.40;76.40;;;;;;6244539;23;20000;-82
2023/05/26 11:41:31;;;;;;;6.75;2.45;;;16.40;76.50;;;;;;6217224;23;20087;-82
2023/05/26 11:43:57;;;;;;;7.55;2.30;;;16.40;76.50;;;;;;6217499;23;20031;-82
2023/05/26 11:46:26;;;;;;;6.32;2.22;;;16.40;76.50;;;;;;6245498;23;20012;-82
2023/05/26 11:48:52;;;;;;;7.10;2.40;;;16.40;76.60;;;;;;6219264;23;19996;-82
2023/05/26 11:51:19;;;;;;;6.95;2.28;;;16.40;76.60;;;;;;6246065;23;20007;-82
2023/05/26 11:53:57;;;;;;;8.45;2.50;;;16.40;76.50;;;;;;6219486;23;20004;-82
2023/05/26 11:56:35;;;;;;;7.00;2.42;;;16.40;76.60;;;;;;6216588;23;20389;-82
2023/05/26 11:59:01;;;;;;;6.07;2.30;;;16.40;76.60;;;;;;6218912;23;20088;-82
2023/05/26 12:01:28;;;;;;;6.55;2.40;;;16.40;76.70;;;;;;6218976;23;20051;-82
2023/05/26 12:03:56;;;;;;;6.20;2.45;;;16.40;76.60;;;;;;6218836;23;20039;-82
2023/05/26 12:06:24;;;;;;;7.05;2.25;;;16.30;76.60;;;;;;6218539;23;20008;-83
2023/05/26 12:08:55;;;;;;;7.25;2.17;;;16.30;76.60;;;;;;6218633;23;20008;-81
2023/05/26 12:11:22;;;;;;;8.52;2.45;;;16.40;76.70;;;;;;6217267;23;20075;-82
2023/05/26 12:13:54;;;;;;;5.80;2.40;;;16.30;76.60;;;;;;6245545;23;20000;-83
2023/05/26 12:16:22;;;;;;;7.78;2.60;;;16.30;76.60;;;;;;6245510;23;20058;-82
2023/05/26 12:18:51;;;;;;;8.02;2.80;;;16.30;76.60;;;;;;6245516;23;20050;-82
2023/05/26 12:21:16;;;;;;;7.68;2.80;;;16.30;76.60;;;;;;6218775;23;20011;-82
2023/05/26 12:23:42;;;;;;;5.93;2.40;;;16.30;76.60;;;;;;6218868;23;20008;-82
2023/05/26 12:26:27;;;;;;;7.13;2.65;;;16.30;76.60;;;;;;6218432;23;20075;-82
2023/05/26 12:29:06;;;;;;;7.35;2.92;;;16.30;76.60;;;;;;6224637;23;20015;-81
2023/05/26 12:31:52;;;;;;;6.55;2.65;;;16.30;76.60;;;;;;6244232;23;20462;-81
2023/05/26 12:34:27;;;;;;;7.05;2.25;;;16.30;76.70;;;;;;6244200;23;20005;-82
2023/05/26 12:36:52;;;;;;;7.25;2.88;;;16.30;77.20;;;;;;6243915;23;20011;-83
2023/05/26 12:39:19;;;;;;;5.93;2.22;;;16.30;76.70;;;;;;6243842;23;20004;-83
2023/05/26 12:41:45;;;;;;;6.57;2.45;;;16.30;76.80;;;;;;6245453;23;20030;-83
2023/05/26 12:44:12;;;;;;;7.25;2.95;;;16.30;76.70;;;;;;6243868;23;20008;-82
2023/05/26 12:46:40;;;;;;;6.88;2.55;;;16.30;76.70;;;;;;6245052;23;20366;-83